createdAt,value
2019-04-03T00:00:34.167Z,44.26
2019-04-03T00:01:34.067Z,44.26
2019-04-03T00:02:32.732Z,44.26
2019-04-03T00:03:32.581Z,44.26
2019-04-03T00:04:33.985Z,44.26
2019-04-03T00:05:32.227Z,44.26
2019-04-03T00:06:35.029Z,44.26
2019-04-03T00:07:32.223Z,44.26
2019-04-03T00:08:32.208Z,44.26
2019-04-03T00:09:32.201Z,44.36
2019-04-03T00:10:32.174Z,44.26
2019-04-03T00:11:32.165Z,44.36
2019-04-03T00:12:32.148Z,44.36
2019-04-03T00:13:32.134Z,44.36
2019-04-03T00:14:32.146Z,44.36
2019-04-03T00:15:32.115Z,44.26
2019-04-03T00:16:32.100Z,44.36
2019-04-03T00:17:32.090Z,44.36
2019-04-03T00:18:32.080Z,44.36
2019-04-03T00:19:32.072Z,44.36
2019-04-03T00:20:32.083Z,44.36
2019-04-03T00:21:32.234Z,44.36
2019-04-03T00:22:32.037Z,44.36
2019-04-03T00:23:32.026Z,44.36
2019-04-03T00:24:32.014Z,44.36
2019-04-03T00:25:32.123Z,44.36
2019-04-03T00:26:32.211Z,44.36
2019-04-03T00:27:31.984Z,44.36
2019-04-03T00:28:32.112Z,44.36
2019-04-03T00:29:31.967Z,44.36
2019-04-03T00:30:31.965Z,44.36
2019-04-03T00:31:31.945Z,44.36
2019-04-03T00:32:32.216Z,44.36
2019-04-03T00:33:31.921Z,44.36
2019-04-03T00:34:31.911Z,44.36
2019-04-03T00:35:31.895Z,44.36
2019-04-03T00:36:31.887Z,44.36
2019-04-03T00:37:31.874Z,44.36
2019-04-03T00:38:31.892Z,44.36
2019-04-03T00:39:31.947Z,44.36
2019-04-03T00:40:31.849Z,44.36
2019-04-03T00:41:31.838Z,44.36
2019-04-03T00:42:31.884Z,44.36
2019-04-03T00:43:31.836Z,44.36
2019-04-03T00:44:31.804Z,44.36
2019-04-03T00:45:31.796Z,44.36
2019-04-03T00:46:31.864Z,44.36
2019-04-03T00:47:31.774Z,44.36
2019-04-03T00:48:31.769Z,44.36
2019-04-03T00:49:31.753Z,44.36
2019-04-03T00:50:31.737Z,44.36
2019-04-03T00:51:31.731Z,44.36
2019-04-03T00:52:31.740Z,44.36
2019-04-03T00:53:31.711Z,44.36
2019-04-03T00:54:31.697Z,44.36
2019-04-03T00:55:31.697Z,44.36
2019-04-03T00:56:31.671Z,44.36
2019-04-03T00:57:31.686Z,44.36
2019-04-03T00:58:31.694Z,44.36
2019-04-03T00:59:31.636Z,44.36
2019-04-03T01:00:31.653Z,44.36
2019-04-03T01:01:31.621Z,44.36
2019-04-03T01:02:31.667Z,44.36
2019-04-03T01:03:31.603Z,44.36
2019-04-03T01:04:31.617Z,44.36
2019-04-03T01:05:31.624Z,44.36
2019-04-03T01:06:31.566Z,44.36
2019-04-03T01:07:31.552Z,44.46
2019-04-03T01:08:31.692Z,44.36
2019-04-03T01:09:31.531Z,44.36
2019-04-03T01:10:31.546Z,44.46
2019-04-03T01:11:31.509Z,44.36
2019-04-03T01:12:31.565Z,44.36
2019-04-03T01:13:31.887Z,44.36
2019-04-03T01:14:32.130Z,44.36
2019-04-03T01:15:32.163Z,44.36
2019-04-03T01:16:33.031Z,44.36
2019-04-03T01:17:34.178Z,44.36
2019-04-03T01:18:34.370Z,44.46
2019-04-03T01:19:31.486Z,44.46
2019-04-03T01:20:31.436Z,44.36
2019-04-03T01:21:31.405Z,44.46
2019-04-03T01:22:31.490Z,44.46
2019-04-03T01:23:31.463Z,44.46
2019-04-03T01:24:31.375Z,44.46
2019-04-03T01:25:31.385Z,44.46
2019-04-03T01:26:31.401Z,44.46
2019-04-03T01:27:31.338Z,44.46
2019-04-03T01:28:31.331Z,44.46
2019-04-03T01:29:31.314Z,44.46
2019-04-03T01:30:31.385Z,44.46
2019-04-03T01:31:31.573Z,44.46
2019-04-03T01:32:31.294Z,44.46
2019-04-03T01:33:31.287Z,44.46
2019-04-03T01:34:31.263Z,44.46
2019-04-03T01:35:31.252Z,44.46
2019-04-03T01:36:31.356Z,44.46
2019-04-03T01:37:31.232Z,44.46
2019-04-03T01:38:31.224Z,44.46
2019-04-03T01:39:31.255Z,44.46
2019-04-03T01:40:31.197Z,44.46
2019-04-03T01:41:31.334Z,44.46
2019-04-03T01:42:31.181Z,44.46
2019-04-03T01:43:31.164Z,44.46
2019-04-03T01:44:31.155Z,44.46
2019-04-03T01:45:31.149Z,44.46
2019-04-03T01:46:31.156Z,44.46
2019-04-03T01:47:31.129Z,44.46
2019-04-03T01:48:31.158Z,44.46
2019-04-03T01:49:31.119Z,44.46
2019-04-03T01:50:31.093Z,44.46
2019-04-03T01:51:31.292Z,44.46
2019-04-03T01:52:31.835Z,44.46
2019-04-03T01:53:32.769Z,44.46
2019-04-03T01:54:31.627Z,44.46
2019-04-03T01:55:31.044Z,44.46
2019-04-03T01:56:31.025Z,44.46
2019-04-03T01:57:31.040Z,44.46
2019-04-03T01:58:31.004Z,44.46
2019-04-03T01:59:30.998Z,44.46
2019-04-03T02:00:30.984Z,44.46
2019-04-03T02:01:30.972Z,44.46
2019-04-03T02:02:30.963Z,44.46
2019-04-03T02:03:30.973Z,44.46
2019-04-03T02:04:30.945Z,44.46
2019-04-03T02:05:30.931Z,44.46
2019-04-03T02:06:30.923Z,44.46
2019-04-03T02:07:30.913Z,44.46
2019-04-03T02:08:30.896Z,44.46
2019-04-03T02:09:30.908Z,44.46
2019-04-03T02:10:30.917Z,44.46
2019-04-03T02:11:30.861Z,44.46
2019-04-03T02:12:30.850Z,44.46
2019-04-03T02:13:30.847Z,44.46
2019-04-03T02:14:31.027Z,44.46
2019-04-03T02:15:30.822Z,44.46
2019-04-03T02:16:30.832Z,44.46
2019-04-03T02:17:30.797Z,44.46
2019-04-03T02:18:30.793Z,44.46
2019-04-03T02:19:30.773Z,44.46
2019-04-03T02:20:30.917Z,44.46
2019-04-03T02:21:30.758Z,44.46
2019-04-03T02:22:30.772Z,44.46
2019-04-03T02:23:31.252Z,44.46
2019-04-03T02:24:31.819Z,44.46
2019-04-03T02:25:32.151Z,44.46
2019-04-03T02:26:32.707Z,44.46
2019-04-03T02:27:33.044Z,44.46
2019-04-03T02:28:30.677Z,44.46
2019-04-03T02:29:30.669Z,44.46
2019-04-03T02:30:30.668Z,44.36
2019-04-03T02:31:30.679Z,44.36
2019-04-03T02:32:30.637Z,44.36
2019-04-03T02:33:30.651Z,44.36
2019-04-03T02:34:34.007Z,44.36
2019-04-03T02:35:30.600Z,44.36
2019-04-03T02:36:30.592Z,44.36
2019-04-03T02:37:30.780Z,44.36
2019-04-03T02:38:30.601Z,44.36
2019-04-03T02:39:30.560Z,44.36
2019-04-03T02:40:32.685Z,44.36
2019-04-03T02:41:30.539Z,44.36
2019-04-03T02:42:30.526Z,44.36
2019-04-03T02:43:30.512Z,44.36
2019-04-03T02:44:30.626Z,44.36
2019-04-03T02:45:30.600Z,44.36
2019-04-03T02:46:30.485Z,44.26
2019-04-03T02:47:33.451Z,44.36
2019-04-03T02:48:30.468Z,44.26
2019-04-03T02:49:30.472Z,44.26
2019-04-03T02:50:30.443Z,44.26
2019-04-03T02:51:30.430Z,44.26
2019-04-03T02:52:30.440Z,44.26
2019-04-03T02:53:31.141Z,44.26
2019-04-03T02:54:34.759Z,44.26
2019-04-03T02:55:31.422Z,44.26
2019-04-03T02:56:30.614Z,44.26
2019-04-03T02:57:30.364Z,44.26
2019-04-03T02:58:30.356Z,44.26
2019-04-03T02:59:30.425Z,44.26
2019-04-03T03:00:33.088Z,44.26
2019-04-03T03:01:30.337Z,44.26
2019-04-03T03:02:30.309Z,44.26
2019-04-03T03:03:30.295Z,44.16
2019-04-03T03:04:30.500Z,44.16
2019-04-03T03:05:30.291Z,44.16
2019-04-03T03:06:32.796Z,44.16
2019-04-03T03:07:30.255Z,44.16
2019-04-03T03:08:30.244Z,44.16
2019-04-03T03:09:30.228Z,44.16
2019-04-03T03:10:31.739Z,44.16
2019-04-03T03:11:30.234Z,44.16
2019-04-03T03:12:30.203Z,44.16
2019-04-03T03:13:33.601Z,44.16
2019-04-03T03:14:30.180Z,44.16
2019-04-03T03:15:30.185Z,44.16
2019-04-03T03:16:30.301Z,44.16
2019-04-03T03:17:30.144Z,44.16
2019-04-03T03:18:30.131Z,44.06
2019-04-03T03:19:33.236Z,44.16
2019-04-03T03:20:30.113Z,44.06
2019-04-03T03:21:30.107Z,44.06
2019-04-03T03:22:30.092Z,44.06
2019-04-03T03:23:30.078Z,44.06
2019-04-03T03:24:30.191Z,44.06
2019-04-03T03:25:32.123Z,44.06
2019-04-03T03:26:30.045Z,44.06
2019-04-03T03:27:30.358Z,44.06
2019-04-03T03:28:30.027Z,44.06
2019-04-03T03:29:30.340Z,44.06
2019-04-03T03:30:41.098Z,44.06
2019-04-03T03:31:59.845Z,44.06
2019-04-03T03:32:35.464Z,44.06
2019-04-03T03:33:36.914Z,44.06
2019-04-03T03:34:47.440Z,44.06
2019-04-03T03:35:39.495Z,44.06
2019-04-03T03:36:31.351Z,43.96
2019-04-03T03:37:32.982Z,43.96
2019-04-03T03:38:29.914Z,43.96
2019-04-03T03:39:29.903Z,43.96
2019-04-03T03:40:29.898Z,43.96
2019-04-03T03:41:29.880Z,43.96
2019-04-03T03:42:31.228Z,43.96
2019-04-03T03:43:29.965Z,43.96
2019-04-03T03:44:29.852Z,43.96
2019-04-03T03:45:29.859Z,43.96
2019-04-03T03:46:29.831Z,43.96
2019-04-03T03:47:32.372Z,43.96
2019-04-03T03:48:30.834Z,43.96
2019-04-03T03:49:29.907Z,43.96
2019-04-03T03:50:29.811Z,43.96
2019-04-03T03:51:31.118Z,43.96
2019-04-03T03:52:29.840Z,43.86
2019-04-03T03:53:29.772Z,43.86
2019-04-03T03:54:29.744Z,43.86
2019-04-03T03:55:29.849Z,43.86
2019-04-03T03:56:31.603Z,43.86
2019-04-03T03:57:29.902Z,43.86
2019-04-03T03:58:30.163Z,43.86
2019-04-03T03:59:29.689Z,43.86
2019-04-03T04:00:29.675Z,43.86
2019-04-03T04:01:31.453Z,43.86
2019-04-03T04:02:29.651Z,43.86
2019-04-03T04:03:29.637Z,43.86
2019-04-03T04:04:29.651Z,43.86
2019-04-03T04:05:29.626Z,43.86
2019-04-03T04:06:30.350Z,43.86
2019-04-03T04:07:29.602Z,43.86
2019-04-03T04:08:29.722Z,43.86
2019-04-03T04:09:29.793Z,43.86
2019-04-03T04:10:29.562Z,43.86
2019-04-03T04:11:31.064Z,43.86
2019-04-03T04:12:29.711Z,43.86
2019-04-03T04:13:30.172Z,43.86
2019-04-03T04:14:29.546Z,43.86
2019-04-03T04:15:30.929Z,43.86
2019-04-03T04:16:29.765Z,43.86
2019-04-03T04:17:29.493Z,43.86
2019-04-03T04:18:29.475Z,43.86
2019-04-03T04:19:30.872Z,43.86
2019-04-03T04:20:29.451Z,43.76
2019-04-03T04:21:29.449Z,43.76
2019-04-03T04:22:29.430Z,43.76
2019-04-03T04:23:29.427Z,43.76
2019-04-03T04:24:29.413Z,43.76
2019-04-03T04:25:30.558Z,43.66
2019-04-03T04:26:31.290Z,43.64
2019-04-03T04:27:29.382Z,43.64
2019-04-03T04:28:29.574Z,43.54
2019-04-03T04:29:29.364Z,43.54
2019-04-03T04:30:29.341Z,43.54
2019-04-03T04:31:29.357Z,43.44
2019-04-03T04:32:29.327Z,43.44
2019-04-03T04:33:29.593Z,43.44
2019-04-03T04:34:29.334Z,43.34
2019-04-03T04:35:29.526Z,43.34
2019-04-03T04:36:29.304Z,43.34
2019-04-03T04:37:29.267Z,43.34
2019-04-03T04:38:29.451Z,43.24
2019-04-03T04:39:29.412Z,43.24
2019-04-03T04:40:31.276Z,43.24
2019-04-03T04:41:30.649Z,43.24
2019-04-03T04:42:29.215Z,43.24
2019-04-03T04:43:29.199Z,43.14
2019-04-03T04:44:29.196Z,43.14
2019-04-03T04:45:29.181Z,43.14
2019-04-03T04:46:29.205Z,43.14
2019-04-03T04:47:29.155Z,43.14
2019-04-03T04:48:29.151Z,43.14
2019-04-03T04:49:29.140Z,43.14
2019-04-03T04:50:29.127Z,43.14
2019-04-03T04:51:29.116Z,43.14
2019-04-03T04:52:29.135Z,43.04
2019-04-03T04:53:29.834Z,43.04
2019-04-03T04:54:30.578Z,43.04
2019-04-03T04:55:31.220Z,43.04
2019-04-03T04:56:29.057Z,43.04
2019-04-03T04:57:29.079Z,43.04
2019-04-03T04:58:29.252Z,43.04
2019-04-03T04:59:29.173Z,43.04
2019-04-03T05:00:29.911Z,43.04
2019-04-03T05:01:29.016Z,43.04
2019-04-03T05:02:29.015Z,43.04
2019-04-03T05:03:29.012Z,43.04
2019-04-03T05:04:28.986Z,43.04
2019-04-03T05:05:30.741Z,43.04
2019-04-03T05:06:29.717Z,43.04
2019-04-03T05:07:30.814Z,43.04
2019-04-03T05:08:29.163Z,43.04
2019-04-03T05:09:29.008Z,43.04
2019-04-03T05:10:28.904Z,43.04
2019-04-03T05:11:28.889Z,43.04
2019-04-03T05:12:28.884Z,43.04
2019-04-03T05:13:28.997Z,43.04
2019-04-03T05:14:28.993Z,43.04
2019-04-03T05:15:28.847Z,43.04
2019-04-03T05:16:28.839Z,43.04
2019-04-03T05:17:28.825Z,43.04
2019-04-03T05:18:29.545Z,43.04
2019-04-03T05:19:28.827Z,43.04
2019-04-03T05:20:28.791Z,43.04
2019-04-03T05:21:28.781Z,43.04
2019-04-03T05:22:28.791Z,43.04
2019-04-03T05:23:28.763Z,43.04
2019-04-03T05:24:29.284Z,43.04
2019-04-03T05:25:29.850Z,43.04
2019-04-03T05:26:28.811Z,43.04
2019-04-03T05:27:29.042Z,43.04
2019-04-03T05:28:28.709Z,43.04
2019-04-03T05:29:28.699Z,43.04
2019-04-03T05:30:28.900Z,43.04
2019-04-03T05:31:28.679Z,43.04
2019-04-03T05:32:28.689Z,43.04
2019-04-03T05:33:28.655Z,43.04
2019-04-03T05:34:28.640Z,43.04
2019-04-03T05:35:28.931Z,43.04
2019-04-03T05:36:28.615Z,43.04
2019-04-03T05:37:28.604Z,43.14
2019-04-03T05:38:28.854Z,43.14
2019-04-03T05:39:28.585Z,43.14
2019-04-03T05:40:28.579Z,43.14
2019-04-03T05:41:28.728Z,43.14
2019-04-03T05:42:29.243Z,43.14
2019-04-03T05:43:30.294Z,43.14
2019-04-03T05:44:28.578Z,43.14
2019-04-03T05:45:28.518Z,43.14
2019-04-03T05:46:28.505Z,43.14
2019-04-03T05:47:28.505Z,43.14
2019-04-03T05:48:28.485Z,43.14
2019-04-03T05:49:28.504Z,43.14
2019-04-03T05:50:28.463Z,43.14
2019-04-03T05:51:29.963Z,43.14
2019-04-03T05:52:28.443Z,43.14
2019-04-03T05:53:28.428Z,43.14
2019-04-03T05:54:28.446Z,43.14
2019-04-03T05:55:28.555Z,43.14
2019-04-03T05:56:28.407Z,43.14
2019-04-03T05:57:29.529Z,43.14
2019-04-03T05:58:28.490Z,43.14
2019-04-03T05:59:28.365Z,43.04
2019-04-03T06:00:28.357Z,43.04
2019-04-03T06:01:28.400Z,43.04
2019-04-03T06:02:28.443Z,43.04
2019-04-03T06:03:39.167Z,43.04
2019-04-03T06:04:29.309Z,43.04
2019-04-03T06:05:28.303Z,43.04
2019-04-03T06:06:28.315Z,43.04
2019-04-03T06:07:28.283Z,43.04
2019-04-03T06:08:28.264Z,43.04
2019-04-03T06:09:28.258Z,43.04
2019-04-03T06:10:31.516Z,43.04
2019-04-03T06:11:28.262Z,43.04
2019-04-03T06:12:28.510Z,43.04
2019-04-03T06:13:28.218Z,43.04
2019-04-03T06:14:28.201Z,43.04
2019-04-03T06:15:28.354Z,43.04
2019-04-03T06:16:28.178Z,43.04
2019-04-03T06:17:28.170Z,43.04
2019-04-03T06:18:31.057Z,43.04
2019-04-03T06:19:28.148Z,43.04
2019-04-03T06:20:28.138Z,43.04
2019-04-03T06:21:28.145Z,43.04
2019-04-03T06:22:28.113Z,43.04
2019-04-03T06:23:28.101Z,42.94
2019-04-03T06:24:28.095Z,42.94
2019-04-03T06:25:30.081Z,42.94
2019-04-03T06:26:28.099Z,42.94
2019-04-03T06:27:28.173Z,42.94
2019-04-03T06:28:28.084Z,42.94
2019-04-03T06:29:28.205Z,42.83
2019-04-03T06:30:28.237Z,42.94
2019-04-03T06:31:28.065Z,42.83
2019-04-03T06:32:29.238Z,42.83
2019-04-03T06:33:30.986Z,42.83
2019-04-03T06:34:28.237Z,42.83
2019-04-03T06:35:27.969Z,42.83
2019-04-03T06:36:28.189Z,42.83
2019-04-03T06:37:27.947Z,42.83
2019-04-03T06:38:27.942Z,42.83
2019-04-03T06:39:31.563Z,42.83
2019-04-03T06:40:27.942Z,42.74
2019-04-03T06:41:27.906Z,42.83
2019-04-03T06:42:27.896Z,42.74
2019-04-03T06:43:30.012Z,42.74
2019-04-03T06:44:27.879Z,42.74
2019-04-03T06:45:27.900Z,42.74
2019-04-03T06:46:29.094Z,42.74
2019-04-03T06:47:27.903Z,42.74
2019-04-03T06:48:27.828Z,42.74
2019-04-03T06:49:27.815Z,42.74
2019-04-03T06:50:27.959Z,42.63
2019-04-03T06:51:27.872Z,42.63
2019-04-03T06:52:27.788Z,42.63
2019-04-03T06:53:28.766Z,42.63
2019-04-03T06:54:27.849Z,42.63
2019-04-03T06:55:27.952Z,42.63
2019-04-03T06:56:28.018Z,42.63
2019-04-03T06:57:27.760Z,42.54
2019-04-03T06:58:37.314Z,42.54
2019-04-03T06:59:28.710Z,42.54
2019-04-03T07:00:27.789Z,42.54
2019-04-03T07:01:27.687Z,42.54
2019-04-03T07:02:31.057Z,42.54
2019-04-03T07:03:27.696Z,42.54
2019-04-03T07:04:27.656Z,42.54
2019-04-03T07:05:28.091Z,42.52
2019-04-03T07:06:27.690Z,42.52
2019-04-03T07:07:34.363Z,42.52
2019-04-03T07:08:34.634Z,42.41
2019-04-03T07:09:35.211Z,42.52
2019-04-03T07:10:28.590Z,42.41
2019-04-03T07:11:27.578Z,42.41
2019-04-03T07:12:27.652Z,42.41
2019-04-03T07:13:29.525Z,42.41
2019-04-03T07:14:27.583Z,42.41
2019-04-03T07:15:27.536Z,42.41
2019-04-03T07:16:28.612Z,42.41
2019-04-03T07:17:27.514Z,42.41
2019-04-03T07:18:27.499Z,42.41
2019-04-03T07:19:27.786Z,42.41
2019-04-03T07:20:27.511Z,42.41
2019-04-03T07:21:27.793Z,42.41
2019-04-03T07:22:28.299Z,42.41
2019-04-03T07:23:28.983Z,42.41
2019-04-03T07:24:27.512Z,42.41
2019-04-03T07:25:27.430Z,42.41
2019-04-03T07:26:27.540Z,42.41
2019-04-03T07:27:27.740Z,42.41
2019-04-03T07:28:30.208Z,42.41
2019-04-03T07:29:27.410Z,42.41
2019-04-03T07:30:27.370Z,42.41
2019-04-03T07:31:27.503Z,42.32
2019-04-03T07:32:27.349Z,42.32
2019-04-03T07:33:28.712Z,42.32
2019-04-03T07:34:27.608Z,42.32
2019-04-03T07:35:27.316Z,42.41
2019-04-03T07:36:27.307Z,42.52
2019-04-03T07:37:27.293Z,42.52
2019-04-03T07:38:27.511Z,42.41
2019-04-03T07:39:27.273Z,42.52
2019-04-03T07:40:27.532Z,42.61
2019-04-03T07:41:27.253Z,42.61
2019-04-03T07:42:27.242Z,42.82
2019-04-03T07:43:27.900Z,42.91
2019-04-03T07:44:27.656Z,43.02
2019-04-03T07:45:27.209Z,43.12
2019-04-03T07:46:27.227Z,43.12
2019-04-03T07:47:27.191Z,43.12
2019-04-03T07:48:27.341Z,43.22
2019-04-03T07:49:27.172Z,43.32
2019-04-03T07:50:27.151Z,43.32
2019-04-03T07:51:27.172Z,43.42
2019-04-03T07:52:27.137Z,43.52
2019-04-03T07:53:27.122Z,43.62
2019-04-03T07:54:27.342Z,43.82
2019-04-03T07:55:28.761Z,43.92
2019-04-03T07:56:27.095Z,43.82
2019-04-03T07:57:29.210Z,43.82
2019-04-03T07:58:27.065Z,43.92
2019-04-03T07:59:27.127Z,44.02
2019-04-03T08:00:27.282Z,44.02
2019-04-03T08:01:27.038Z,43.92
2019-04-03T08:02:27.026Z,44.02
2019-04-03T08:03:27.015Z,43.92
2019-04-03T08:04:27.179Z,43.82
2019-04-03T08:05:26.999Z,43.82
2019-04-03T08:06:27.011Z,43.82
2019-04-03T08:07:26.974Z,43.92
2019-04-03T08:08:26.964Z,43.82
2019-04-03T08:09:26.946Z,43.92
2019-04-03T08:10:27.993Z,44.02
2019-04-03T08:11:26.929Z,43.92
2019-04-03T08:12:26.949Z,44.02
2019-04-03T08:13:26.906Z,44.02
2019-04-03T08:14:26.892Z,43.92
2019-04-03T08:15:27.115Z,43.82
2019-04-03T08:16:26.877Z,43.82
2019-04-03T08:17:26.887Z,43.72
2019-04-03T08:18:26.856Z,43.72
2019-04-03T08:19:26.864Z,43.52
2019-04-03T08:20:27.100Z,43.52
2019-04-03T08:21:29.467Z,43.42
2019-04-03T08:22:27.036Z,43.42
2019-04-03T08:23:26.805Z,43.42
2019-04-03T08:24:26.916Z,43.42
2019-04-03T08:25:26.777Z,43.32
2019-04-03T08:26:27.460Z,43.32
2019-04-03T08:27:26.760Z,43.32
2019-04-03T08:28:29.736Z,43.32
2019-04-03T08:29:26.972Z,43.22
2019-04-03T08:30:26.742Z,43.22
2019-04-03T08:31:26.938Z,43.22
2019-04-03T08:32:26.703Z,43.22
2019-04-03T08:33:27.756Z,43.12
2019-04-03T08:34:26.681Z,43.12
2019-04-03T08:35:26.719Z,43.12
2019-04-03T08:36:27.114Z,43.12
2019-04-03T08:37:30.891Z,43.12
2019-04-03T08:38:27.685Z,43.12
2019-04-03T08:39:26.628Z,43.02
2019-04-03T08:40:26.616Z,43.02
2019-04-03T08:41:26.623Z,43.02
2019-04-03T08:42:28.082Z,43.02
2019-04-03T08:43:26.587Z,43.02
2019-04-03T08:44:26.855Z,43.02
2019-04-03T08:45:26.560Z,43.02
2019-04-03T08:46:26.582Z,43.02
2019-04-03T08:47:26.535Z,43.02
2019-04-03T08:48:26.530Z,42.91
2019-04-03T08:49:26.722Z,42.91
2019-04-03T08:50:26.797Z,42.91
2019-04-03T08:51:26.495Z,42.91
2019-04-03T08:52:26.509Z,42.91
2019-04-03T08:53:26.555Z,42.91
2019-04-03T08:54:26.461Z,42.91
2019-04-03T08:55:26.453Z,42.91
2019-04-03T08:56:26.447Z,42.91
2019-04-03T08:57:26.425Z,42.91
2019-04-03T08:58:26.763Z,42.82
2019-04-03T08:59:27.985Z,42.82
2019-04-03T09:00:26.503Z,42.82
2019-04-03T09:01:26.549Z,42.82
2019-04-03T09:02:26.374Z,42.82
2019-04-03T09:03:26.360Z,42.82
2019-04-03T09:04:26.375Z,42.82
2019-04-03T09:05:26.342Z,42.82
2019-04-03T09:06:26.553Z,42.82
2019-04-03T09:07:26.323Z,42.82
2019-04-03T09:08:27.134Z,42.82
2019-04-03T09:09:28.484Z,42.82
2019-04-03T09:10:26.282Z,42.72
2019-04-03T09:11:26.274Z,42.72
2019-04-03T09:12:26.463Z,42.72
2019-04-03T09:13:26.525Z,42.82
2019-04-03T09:14:26.247Z,42.72
2019-04-03T09:15:28.214Z,42.72
2019-04-03T09:16:26.222Z,42.72
2019-04-03T09:17:26.234Z,42.72
2019-04-03T09:18:26.193Z,42.72
2019-04-03T09:19:26.236Z,42.72
2019-04-03T09:20:26.175Z,42.72
2019-04-03T09:21:26.160Z,42.72
2019-04-03T09:22:26.179Z,42.72
2019-04-03T09:23:26.142Z,42.72
2019-04-03T09:24:28.991Z,42.72
2019-04-03T09:25:26.124Z,42.72
2019-04-03T09:26:26.109Z,42.72
2019-04-03T09:27:26.186Z,42.72
2019-04-03T09:28:26.306Z,42.72
2019-04-03T09:29:26.399Z,42.61
2019-04-03T09:30:26.069Z,42.72
2019-04-03T09:31:26.223Z,42.72
2019-04-03T09:32:26.039Z,42.72
2019-04-03T09:33:28.011Z,42.72
2019-04-03T09:34:28.748Z,42.72
2019-04-03T09:35:26.014Z,42.61
2019-04-03T09:36:25.997Z,42.61
2019-04-03T09:37:26.546Z,42.72
2019-04-03T09:38:25.976Z,42.72
2019-04-03T09:39:26.167Z,42.72
2019-04-03T09:40:25.957Z,42.61
2019-04-03T09:41:26.286Z,42.72
2019-04-03T09:42:25.937Z,42.80
2019-04-03T09:43:25.921Z,42.82
2019-04-03T09:44:26.103Z,42.80
2019-04-03T09:45:28.150Z,42.69
2019-04-03T09:46:25.898Z,42.69
2019-04-03T09:47:26.126Z,42.72
2019-04-03T09:48:25.869Z,42.72
2019-04-03T09:49:25.854Z,42.72
2019-04-03T09:50:25.887Z,42.80
2019-04-03T09:51:25.893Z,42.80
2019-04-03T09:52:37.988Z,42.80
2019-04-03T09:53:27.164Z,42.80
2019-04-03T09:54:28.286Z,42.80
2019-04-03T09:55:25.795Z,42.90
2019-04-03T09:56:25.778Z,42.90
2019-04-03T09:57:25.791Z,42.90
2019-04-03T09:58:25.756Z,42.90
2019-04-03T09:59:25.745Z,42.90
2019-04-03T10:00:26.078Z,42.90
2019-04-03T10:01:26.064Z,42.90
2019-04-03T10:02:25.736Z,42.90
2019-04-03T10:03:26.019Z,42.90
2019-04-03T10:04:26.720Z,42.90
2019-04-03T10:05:26.783Z,42.90
2019-04-03T10:06:25.667Z,42.90
2019-04-03T10:07:25.663Z,42.90
2019-04-03T10:08:25.971Z,42.90
2019-04-03T10:09:25.636Z,42.90
2019-04-03T10:10:26.350Z,42.90
2019-04-03T10:11:25.614Z,42.90
2019-04-03T10:12:25.820Z,42.90
2019-04-03T10:13:26.319Z,42.90
2019-04-03T10:14:27.626Z,42.90
2019-04-03T10:15:25.576Z,42.90
2019-04-03T10:16:25.564Z,42.90
2019-04-03T10:17:25.556Z,42.90
2019-04-03T10:18:25.541Z,42.90
2019-04-03T10:19:25.570Z,42.90
2019-04-03T10:20:25.514Z,42.90
2019-04-03T10:21:25.509Z,42.90
2019-04-03T10:22:25.496Z,42.90
2019-04-03T10:23:28.194Z,42.90
2019-04-03T10:24:25.499Z,42.90
2019-04-03T10:25:25.500Z,42.90
2019-04-03T10:26:25.457Z,42.90
2019-04-03T10:27:25.790Z,42.90
2019-04-03T10:28:25.527Z,42.90
2019-04-03T10:29:25.465Z,42.90
2019-04-03T10:30:25.408Z,42.90
2019-04-03T10:31:25.397Z,42.90
2019-04-03T10:32:27.989Z,42.90
2019-04-03T10:33:25.422Z,42.90
2019-04-03T10:34:25.364Z,42.90
2019-04-03T10:35:25.374Z,42.90
2019-04-03T10:36:25.371Z,42.90
2019-04-03T10:37:25.523Z,42.90
2019-04-03T10:38:25.323Z,42.90
2019-04-03T10:39:25.548Z,42.90
2019-04-03T10:40:25.480Z,42.90
2019-04-03T10:41:28.053Z,42.90
2019-04-03T10:42:25.299Z,42.90
2019-04-03T10:43:25.701Z,42.90
2019-04-03T10:44:25.307Z,42.90
2019-04-03T10:45:25.541Z,42.90
2019-04-03T10:46:25.368Z,42.90
2019-04-03T10:47:34.589Z,42.90
2019-04-03T10:48:28.215Z,42.90
2019-04-03T10:49:25.204Z,42.90
2019-04-03T10:50:25.264Z,42.90
2019-04-03T10:51:25.276Z,42.90
2019-04-03T10:52:25.208Z,42.90
2019-04-03T10:53:25.155Z,42.90
2019-04-03T10:54:25.785Z,42.90
2019-04-03T10:55:27.301Z,42.90
2019-04-03T10:56:25.128Z,42.90
2019-04-03T10:57:25.122Z,42.90
2019-04-03T10:58:25.123Z,42.90
2019-04-03T10:59:25.090Z,42.90
2019-04-03T11:00:28.589Z,42.90
2019-04-03T11:01:25.079Z,42.90
2019-04-03T11:02:25.338Z,42.90
2019-04-03T11:03:26.323Z,42.80
2019-04-03T11:04:25.103Z,42.80
2019-04-03T11:05:25.135Z,42.80
2019-04-03T11:06:25.014Z,42.80
2019-04-03T11:07:25.007Z,42.80
2019-04-03T11:08:24.996Z,42.80
2019-04-03T11:09:25.018Z,42.80
2019-04-03T11:10:25.565Z,42.80
2019-04-03T11:11:24.966Z,42.80
2019-04-03T11:12:24.953Z,42.80
2019-04-03T11:13:24.947Z,42.80
2019-04-03T11:14:24.949Z,42.80
2019-04-03T11:15:24.917Z,42.80
2019-04-03T11:16:25.300Z,42.80
2019-04-03T11:17:25.717Z,42.90
2019-04-03T11:18:24.893Z,42.90
2019-04-03T11:19:24.904Z,42.90
2019-04-03T11:20:25.053Z,42.90
2019-04-03T11:21:24.858Z,42.90
2019-04-03T11:22:24.846Z,42.90
2019-04-03T11:23:36.470Z,42.90
2019-04-03T11:24:25.843Z,42.90
2019-04-03T11:25:24.984Z,42.90
2019-04-03T11:26:25.493Z,42.99
2019-04-03T11:27:39.971Z,42.99
2019-04-03T11:28:26.188Z,42.99
2019-04-03T11:29:24.985Z,42.99
2019-04-03T11:30:25.139Z,42.99
2019-04-03T11:31:28.154Z,43.10
2019-04-03T11:32:25.007Z,43.10
2019-04-03T11:33:25.458Z,43.10
2019-04-03T11:34:24.734Z,43.10
2019-04-03T11:35:24.861Z,43.10
2019-04-03T11:36:25.955Z,43.19
2019-04-03T11:37:24.682Z,43.30
2019-04-03T11:38:28.213Z,43.80
2019-04-03T11:39:24.663Z,44.10
2019-04-03T11:40:25.560Z,44.40
2019-04-03T11:41:24.643Z,44.50
2019-04-03T11:42:28.666Z,44.60
2019-04-03T11:43:24.688Z,44.50
2019-04-03T11:44:24.622Z,44.40
2019-04-03T11:45:24.610Z,44.30
2019-04-03T11:46:24.585Z,44.30
2019-04-03T11:47:24.646Z,44.30
2019-04-03T11:48:27.073Z,44.30
2019-04-03T11:49:24.577Z,44.30
2019-04-03T11:50:25.403Z,44.40
2019-04-03T11:51:24.532Z,44.40
2019-04-03T11:52:24.526Z,44.40
2019-04-03T11:53:24.779Z,44.40
2019-04-03T11:54:24.538Z,44.40
2019-04-03T11:55:24.522Z,44.40
2019-04-03T11:56:24.482Z,44.50
2019-04-03T11:57:26.751Z,44.60
2019-04-03T11:58:24.476Z,44.60
2019-04-03T11:59:24.845Z,44.70
2019-04-03T12:00:24.473Z,44.80
2019-04-03T12:01:24.425Z,44.80
2019-04-03T12:02:24.417Z,44.80
2019-04-03T12:03:24.405Z,45.00
2019-04-03T12:04:24.730Z,45.00
2019-04-03T12:05:24.425Z,45.00
2019-04-03T12:06:24.372Z,45.00
2019-04-03T12:07:25.120Z,45.00
2019-04-03T12:08:25.939Z,45.00
2019-04-03T12:09:24.336Z,45.10
2019-04-03T12:10:25.943Z,45.20
2019-04-03T12:11:24.341Z,45.20
2019-04-03T12:12:24.305Z,45.20
2019-04-03T12:13:24.302Z,45.30
2019-04-03T12:14:24.286Z,45.30
2019-04-03T12:15:24.282Z,45.30
2019-04-03T12:16:25.885Z,45.30
2019-04-03T12:17:24.665Z,45.30
2019-04-03T12:18:24.244Z,45.40
2019-04-03T12:19:24.236Z,45.40
2019-04-03T12:20:24.218Z,45.40
2019-04-03T12:21:24.510Z,45.50
2019-04-03T12:22:24.227Z,45.50
2019-04-03T12:23:24.431Z,45.50
2019-04-03T12:24:24.180Z,45.50
2019-04-03T12:25:24.174Z,45.80
2019-04-03T12:26:24.384Z,46.11
2019-04-03T12:27:24.245Z,46.50
2019-04-03T12:28:24.161Z,46.30
2019-04-03T12:29:24.185Z,46.30
2019-04-03T12:30:26.391Z,46.30
2019-04-03T12:31:24.108Z,46.41
2019-04-03T12:32:35.792Z,46.41
2019-04-03T12:33:25.346Z,46.91
2019-04-03T12:34:24.071Z,46.70
2019-04-03T12:35:24.074Z,46.61
2019-04-03T12:36:26.903Z,46.61
2019-04-03T12:37:25.005Z,46.70
2019-04-03T12:38:24.066Z,46.61
2019-04-03T12:39:24.790Z,46.61
2019-04-03T12:40:24.004Z,46.50
2019-04-03T12:41:26.471Z,46.61
2019-04-03T12:42:23.993Z,46.61
2019-04-03T12:43:24.060Z,46.50
2019-04-03T12:44:24.269Z,46.50
2019-04-03T12:45:26.270Z,46.50
2019-04-03T12:46:24.135Z,46.50
2019-04-03T12:47:23.985Z,46.50
2019-04-03T12:48:23.995Z,46.50
2019-04-03T12:49:24.271Z,46.48
2019-04-03T12:50:26.848Z,46.48
2019-04-03T12:51:23.893Z,46.50
2019-04-03T12:52:24.189Z,46.48